Hauptseite
METAR-TAF:

METAR-TAF

Flughäfen :

Flughafen Irkutsk

Irkutsk, Russland

Breite: 52-16N, Länge: 104-19E, Höhe: 513 m

Beobachtung

Neuester Wetterbericht von vor 25 Minuten, um 05:30 UTC
Windstille
Temperatur -16°C
Luftfeuchtigkeit 84%
Luftdruck 1025 hPa
Sichtweite: 5000 m
Aufgelockert bewölkt in der Höhe von 300 ft
feuchter Dunst

METAR: UIII 190530Z 00000MPS 5000 BR SCT003 M16/M18 Q1025 R12/820350 NOSIG RMK QBB100 QFE726/0968

Zeit: 13:55 (05:55 UTC)

Prognose

Neuester Wetterbericht von vor 55 Minuten, um 05:00 UTC
Gültige Prognose vom 19 um 06 UTC bis 20 um 06 UTC
Wind 2 kt aus unterschiedlichen Richtungen
Sichtweite: 3100 m
Rauch

TAF: UIII 190500Z 1906/2006 VRB01MPS 3100 FU NSC

Wetterbeobachtungen und Prognosen von mehr als 4000 Flughäfen (METAR und TAF Bericht).

Die verfügbaren Stationen werden durch gelbe und rote Markierungen auf der Karte dargestellt.

Führen Sie die Maus auf sie, um den Namen der Station zu sehen.

Darauf klicken, um die Beobachtung von Wetterbeobachtungen und Prognosen zu sehen.

Um die Karte zu ändern : klicken Sie auf den grünen Tasten mit einem schwarzen Kreuz Zum Vergrößern, auf den grünen Button mit einem Gedankenstrich zu verkleinern, oder auf die grünen Pfeile für benachbarte Karten.


METAR-TAF: